Startpagina
METAR-TAF:

METAR-TAF

Vliegvelden :

Luchthaven Sibiu

Sibiu, Roemenië

breedte: 45-48N, lengte: 024-09E, hoogte: 443 m

Actueel weer

Dit bericht is 27 minuten geleden gemaakt, om 11:00 UTC
Wind 4 kt uit variabele richting
Temperatuur 20°C
Vochtigheid 56%
Druk 1019 hPa
Zicht 10 km of meer
Verspreide wolken op 3100 ft

METAR: LRSB 201100Z VRB04KT 9999 SCT031 20/11 Q1019

Tijdstip: 14:27 (11:27 UTC)

Verwachting

Dit bericht is 6 uur en het 27 minuten geleden gemaakt, om 05:00 UTC
Verwachting geldig van 20 om 06 UTC tot 21 om 06 UTC
Wind 4 kt uit variabele richting
Zicht 10 km of meer
Verspreide wolken op 3500 ft
Tijdelijke
van 20 om 11 UTC tot 20 om 16 UTC
Verspreide wolken op 4000 ft, Cumulonimbus.
Tijdelijke
van 21 om 03 UTC tot 21 om 06 UTC
Verspreide wolken op 4000 ft, Cumulonimbus.

TAF: LRSB 200500Z 2006/2106 VRB04KT 9999 SCT035 TEMPO 2011/2016 SCT040CB TEMPO 2103/2106 SCT040CB

Waarnemingen en weersverwachtingen van meer dan 4000 vliegvelden (METAR en TAF).

De beschikbare stations zijn de gele en rode punten op de kaart.

Ga met uw muis naar het station om de naam te zien.

Klik dan om waarnemingen en weersverwachtingen te zien.

kaart wijzigen: klik op de groene knoppen met een zwart kruis om in te zoomen, op de groene knop met een streepje om uit te zoomen of op de groene pijlen voor aangrenzende kaarten.


METAR-TAF: